Terminal Aerodrome Forecast
Issued by NWS

Home | Current Version | Previous Version | Graphics & Text | Print | Product List | Glossary On
Versions: 1 2 3 4 5 6 7 8 9 10 11 12 13 14 15 16 17 18
000
FTUS43 KICT 212331
TAFRSL
TAF
KRSL 212331Z 2200/2224 20015G23KT P6SM VCTS SCT060 BKN100CB
     FM220700 01014G20KT P6SM VCTS SCT015 BKN050CB
     FM221300 03014G20KT P6SM SKC=

USA.gov is the U.S. government's official web portal to all federal, state and local government web resources and services.